sensor_id;sensor_type;location;lat;lon;timestamp;temperature;humidity
21047;DHT22;10682;50.874;3.656;2022-08-07T00:01:18;13.10;99.90
21047;DHT22;10682;50.874;3.656;2022-08-07T00:04:06;12.90;99.90
21047;DHT22;10682;50.874;3.656;2022-08-07T00:06:37;12.80;99.90
21047;DHT22;10682;50.874;3.656;2022-08-07T00:09:18;12.70;99.90
21047;DHT22;10682;50.874;3.656;2022-08-07T00:11:49;12.50;99.90
21047;DHT22;10682;50.874;3.656;2022-08-07T00:14:24;12.50;99.90
21047;DHT22;10682;50.874;3.656;2022-08-07T00:17:00;12.50;99.90
21047;DHT22;10682;50.874;3.656;2022-08-07T00:19:30;12.40;99.90
21047;DHT22;10682;50.874;3.656;2022-08-07T00:22:18;12.50;99.90
21047;DHT22;10682;50.874;3.656;2022-08-07T00:25:03;12.50;99.90
21047;DHT22;10682;50.874;3.656;2022-08-07T00:27:32;12.50;99.90
21047;DHT22;10682;50.874;3.656;2022-08-07T00:30:20;12.40;99.90
21047;DHT22;10682;50.874;3.656;2022-08-07T00:32:58;12.40;99.90
21047;DHT22;10682;50.874;3.656;2022-08-07T00:35:27;12.40;99.90
21047;DHT22;10682;50.874;3.656;2022-08-07T00:37:57;12.30;99.90
21047;DHT22;10682;50.874;3.656;2022-08-07T00:40:25;12.30;99.90
21047;DHT22;10682;50.874;3.656;2022-08-07T00:43:09;12.20;99.90
21047;DHT22;10682;50.874;3.656;2022-08-07T00:45:58;12.20;99.90
21047;DHT22;10682;50.874;3.656;2022-08-07T00:48:27;12.20;99.90
21047;DHT22;10682;50.874;3.656;2022-08-07T00:50:58;12.20;99.90
21047;DHT22;10682;50.874;3.656;2022-08-07T00:53:26;12.20;99.90
21047;DHT22;10682;50.874;3.656;2022-08-07T00:56:13;12.10;99.90
21047;DHT22;10682;50.874;3.656;2022-08-07T00:58:42;12.10;99.90
21047;DHT22;10682;50.874;3.656;2022-08-07T01:01:16;12.00;99.90
21047;DHT22;10682;50.874;3.656;2022-08-07T01:03:47;11.90;99.90
21047;DHT22;10682;50.874;3.656;2022-08-07T01:06:23;11.90;99.90
21047;DHT22;10682;50.874;3.656;2022-08-07T01:08:50;11.90;99.90
21047;DHT22;10682;50.874;3.656;2022-08-07T01:11:21;11.90;99.90
21047;DHT22;10682;50.874;3.656;2022-08-07T01:14:09;11.90;99.90
21047;DHT22;10682;50.874;3.656;2022-08-07T01:16:36;11.80;99.90
21047;DHT22;10682;50.874;3.656;2022-08-07T01:19:06;11.90;99.90
21047;DHT22;10682;50.874;3.656;2022-08-07T01:21:45;11.90;99.90
21047;DHT22;10682;50.874;3.656;2022-08-07T01:24:14;11.80;99.90
21047;DHT22;10682;50.874;3.656;2022-08-07T01:26:51;11.80;99.90
21047;DHT22;10682;50.874;3.656;2022-08-07T01:29:22;11.80;99.90
21047;DHT22;10682;50.874;3.656;2022-08-07T01:31:57;11.70;99.90
21047;DHT22;10682;50.874;3.656;2022-08-07T01:34:25;11.70;99.90
21047;DHT22;10682;50.874;3.656;2022-08-07T01:36:57;11.60;99.90
21047;DHT22;10682;50.874;3.656;2022-08-07T01:39:25;11.50;99.90
21047;DHT22;10682;50.874;3.656;2022-08-07T01:42:13;11.30;99.90
21047;DHT22;10682;50.874;3.656;2022-08-07T01:45:03;11.30;99.90
21047;DHT22;10682;50.874;3.656;2022-08-07T01:47:41;11.20;99.90
21047;DHT22;10682;50.874;3.656;2022-08-07T01:50:29;11.20;99.90
21047;DHT22;10682;50.874;3.656;2022-08-07T01:52:58;11.20;99.90
21047;DHT22;10682;50.874;3.656;2022-08-07T01:55:28;11.20;99.90
21047;DHT22;10682;50.874;3.656;2022-08-07T01:58:30;11.20;99.90
21047;DHT22;10682;50.874;3.656;2022-08-07T02:01:14;11.30;99.90
21047;DHT22;10682;50.874;3.656;2022-08-07T02:04:34;11.30;99.90
21047;DHT22;10682;50.874;3.656;2022-08-07T02:07:04;11.30;99.90
21047;DHT22;10682;50.874;3.656;2022-08-07T02:09:34;11.30;99.90
21047;DHT22;10682;50.874;3.656;2022-08-07T02:12:21;11.20;99.90
21047;DHT22;10682;50.874;3.656;2022-08-07T02:14:57;11.10;99.90
21047;DHT22;10682;50.874;3.656;2022-08-07T02:17:26;11.10;99.90
21047;DHT22;10682;50.874;3.656;2022-08-07T02:20:01;11.10;99.90
21047;DHT22;10682;50.874;3.656;2022-08-07T02:22:43;11.10;99.90
21047;DHT22;10682;50.874;3.656;2022-08-07T02:25:13;11.00;99.90
21047;DHT22;10682;50.874;3.656;2022-08-07T02:27:44;11.00;99.90
21047;DHT22;10682;50.874;3.656;2022-08-07T02:30:18;10.90;99.90
21047;DHT22;10682;50.874;3.656;2022-08-07T02:32:46;10.90;99.90
21047;DHT22;10682;50.874;3.656;2022-08-07T02:35:31;10.90;99.90
21047;DHT22;10682;50.874;3.656;2022-08-07T02:38:21;10.80;99.90
21047;DHT22;10682;50.874;3.656;2022-08-07T02:40:58;10.80;99.90
21047;DHT22;10682;50.874;3.656;2022-08-07T02:43:29;10.60;99.90
21047;DHT22;10682;50.874;3.656;2022-08-07T02:45:58;10.50;99.90
21047;DHT22;10682;50.874;3.656;2022-08-07T02:48:29;10.30;99.90
21047;DHT22;10682;50.874;3.656;2022-08-07T02:50:58;10.30;99.90
21047;DHT22;10682;50.874;3.656;2022-08-07T02:53:34;10.30;99.90
21047;DHT22;10682;50.874;3.656;2022-08-07T02:56:08;10.30;99.90
21047;DHT22;10682;50.874;3.656;2022-08-07T02:58:49;10.30;99.90
21047;DHT22;10682;50.874;3.656;2022-08-07T03:01:23;10.30;99.90
21047;DHT22;10682;50.874;3.656;2022-08-07T03:04:04;10.30;99.90
21047;DHT22;10682;50.874;3.656;2022-08-07T03:06:40;10.30;99.90
21047;DHT22;10682;50.874;3.656;2022-08-07T03:09:11;10.20;99.90
21047;DHT22;10682;50.874;3.656;2022-08-07T03:11:39;10.10;99.90
21047;DHT22;10682;50.874;3.656;2022-08-07T03:14:24;10.10;99.90
21047;DHT22;10682;50.874;3.656;2022-08-07T03:16:54;10.10;99.90
21047;DHT22;10682;50.874;3.656;2022-08-07T03:19:23;10.10;99.90
21047;DHT22;10682;50.874;3.656;2022-08-07T03:21:54;10.10;99.90
21047;DHT22;10682;50.874;3.656;2022-08-07T03:24:24;10.00;99.90
21047;DHT22;10682;50.874;3.656;2022-08-07T03:26:57;10.00;99.90
21047;DHT22;10682;50.874;3.656;2022-08-07T03:29:31;10.00;99.90
21047;DHT22;10682;50.874;3.656;2022-08-07T03:32:05;10.00;99.90
21047;DHT22;10682;50.874;3.656;2022-08-07T03:34:41;10.00;99.90
21047;DHT22;10682;50.874;3.656;2022-08-07T03:37:28;10.00;99.90
21047;DHT22;10682;50.874;3.656;2022-08-07T03:39:58;10.00;99.90
21047;DHT22;10682;50.874;3.656;2022-08-07T03:42:42;10.00;99.90
21047;DHT22;10682;50.874;3.656;2022-08-07T03:45:10;10.00;99.90
21047;DHT22;10682;50.874;3.656;2022-08-07T03:47:37;9.90;99.90
21047;DHT22;10682;50.874;3.656;2022-08-07T03:50:18;9.90;99.90
21047;DHT22;10682;50.874;3.656;2022-08-07T03:52:50;9.90;99.90
21047;DHT22;10682;50.874;3.656;2022-08-07T03:55:18;9.90;99.90
21047;DHT22;10682;50.874;3.656;2022-08-07T03:57:45;9.90;99.90
21047;DHT22;10682;50.874;3.656;2022-08-07T04:00:34;9.90;99.90
21047;DHT22;10682;50.874;3.656;2022-08-07T04:03:02;9.90;99.90
21047;DHT22;10682;50.874;3.656;2022-08-07T04:05:33;10.00;99.90
21047;DHT22;10682;50.874;3.656;2022-08-07T04:08:12;9.90;99.90
21047;DHT22;10682;50.874;3.656;2022-08-07T04:10:44;9.80;99.90
21047;DHT22;10682;50.874;3.656;2022-08-07T04:13:33;9.90;99.90
21047;DHT22;10682;50.874;3.656;2022-08-07T04:16:20;9.90;99.90
21047;DHT22;10682;50.874;3.656;2022-08-07T04:18:59;9.90;99.90
21047;DHT22;10682;50.874;3.656;2022-08-07T04:21:38;9.90;99.90
21047;DHT22;10682;50.874;3.656;2022-08-07T04:24:14;9.80;99.90
21047;DHT22;10682;50.874;3.656;2022-08-07T04:26:59;9.80;99.90
21047;DHT22;10682;50.874;3.656;2022-08-07T04:29:30;9.80;99.90
21047;DHT22;10682;50.874;3.656;2022-08-07T04:32:20;9.70;99.90
21047;DHT22;10682;50.874;3.656;2022-08-07T04:35:02;9.60;99.90
21047;DHT22;10682;50.874;3.656;2022-08-07T04:37:33;9.50;99.90
21047;DHT22;10682;50.874;3.656;2022-08-07T04:40:22;9.50;99.90
21047;DHT22;10682;50.874;3.656;2022-08-07T04:42:56;9.50;99.90
21047;DHT22;10682;50.874;3.656;2022-08-07T04:45:47;9.50;99.90
21047;DHT22;10682;50.874;3.656;2022-08-07T04:49:20;9.60;99.90
21047;DHT22;10682;50.874;3.656;2022-08-07T04:51:59;9.60;99.90
21047;DHT22;10682;50.874;3.656;2022-08-07T04:54:46;9.80;99.90
21047;DHT22;10682;50.874;3.656;2022-08-07T05:00:24;10.00;99.90
21047;DHT22;10682;50.874;3.656;2022-08-07T05:03:48;10.00;99.90
21047;DHT22;10682;50.874;3.656;2022-08-07T05:06:35;10.10;99.90
21047;DHT22;10682;50.874;3.656;2022-08-07T05:09:31;10.30;99.90
21047;DHT22;10682;50.874;3.656;2022-08-07T05:12:18;10.40;99.90
21047;DHT22;10682;50.874;3.656;2022-08-07T05:15:05;10.40;99.90
21047;DHT22;10682;50.874;3.656;2022-08-07T05:17:54;10.50;99.90
21047;DHT22;10682;50.874;3.656;2022-08-07T05:20:32;10.60;99.90
21047;DHT22;10682;50.874;3.656;2022-08-07T05:23:08;10.60;99.90
21047;DHT22;10682;50.874;3.656;2022-08-07T05:25:43;10.60;99.90
21047;DHT22;10682;50.874;3.656;2022-08-07T05:28:32;10.70;99.90
21047;DHT22;10682;50.874;3.656;2022-08-07T05:31:01;10.80;99.90
21047;DHT22;10682;50.874;3.656;2022-08-07T05:33:30;10.90;99.90
21047;DHT22;10682;50.874;3.656;2022-08-07T05:36:03;11.00;99.90
21047;DHT22;10682;50.874;3.656;2022-08-07T05:38:39;11.10;99.90
21047;DHT22;10682;50.874;3.656;2022-08-07T05:41:29;11.30;99.90
21047;DHT22;10682;50.874;3.656;2022-08-07T05:44:18;11.30;99.90
21047;DHT22;10682;50.874;3.656;2022-08-07T05:46:55;11.50;99.90
21047;DHT22;10682;50.874;3.656;2022-08-07T05:49:26;11.60;99.90
21047;DHT22;10682;50.874;3.656;2022-08-07T05:52:06;11.90;99.90
21047;DHT22;10682;50.874;3.656;2022-08-07T05:54:37;12.00;99.90
21047;DHT22;10682;50.874;3.656;2022-08-07T05:57:20;12.20;99.90
21047;DHT22;10682;50.874;3.656;2022-08-07T05:59:47;12.30;99.90
21047;DHT22;10682;50.874;3.656;2022-08-07T06:02:26;12.40;99.90
21047;DHT22;10682;50.874;3.656;2022-08-07T06:05:01;12.60;99.90
21047;DHT22;10682;50.874;3.656;2022-08-07T06:07:31;12.70;99.90
21047;DHT22;10682;50.874;3.656;2022-08-07T06:10:19;12.80;99.90
21047;DHT22;10682;50.874;3.656;2022-08-07T06:12:48;13.00;99.90
21047;DHT22;10682;50.874;3.656;2022-08-07T06:15:16;13.20;99.90
21047;DHT22;10682;50.874;3.656;2022-08-07T06:17:46;13.30;99.90
21047;DHT22;10682;50.874;3.656;2022-08-07T06:20:24;13.50;99.90
21047;DHT22;10682;50.874;3.656;2022-08-07T06:23:11;13.70;99.90
21047;DHT22;10682;50.874;3.656;2022-08-07T06:25:59;13.90;99.90
21047;DHT22;10682;50.874;3.656;2022-08-07T06:28:27;14.10;99.90
21047;DHT22;10682;50.874;3.656;2022-08-07T06:30:55;14.10;99.90
21047;DHT22;10682;50.874;3.656;2022-08-07T06:33:24;14.30;99.90
21047;DHT22;10682;50.874;3.656;2022-08-07T06:35:52;14.50;99.90
21047;DHT22;10682;50.874;3.656;2022-08-07T06:38:43;14.70;99.90
21047;DHT22;10682;50.874;3.656;2022-08-07T06:41:38;14.90;99.90
21047;DHT22;10682;50.874;3.656;2022-08-07T06:44:28;15.10;99.90
21047;DHT22;10682;50.874;3.656;2022-08-07T06:47:00;15.40;99.90
21047;DHT22;10682;50.874;3.656;2022-08-07T06:49:43;15.70;99.90
21047;DHT22;10682;50.874;3.656;2022-08-07T06:52:18;16.00;99.90
21047;DHT22;10682;50.874;3.656;2022-08-07T06:55:04;16.20;99.90
21047;DHT22;10682;50.874;3.656;2022-08-07T06:57:59;16.60;99.90
21047;DHT22;10682;50.874;3.656;2022-08-07T07:00:31;17.00;99.90
21047;DHT22;10682;50.874;3.656;2022-08-07T07:03:04;17.60;99.90
21047;DHT22;10682;50.874;3.656;2022-08-07T07:05:39;18.80;99.90
21047;DHT22;10682;50.874;3.656;2022-08-07T07:08:28;20.40;99.90
21047;DHT22;10682;50.874;3.656;2022-08-07T07:10:59;22.10;99.90
21047;DHT22;10682;50.874;3.656;2022-08-07T07:13:45;23.00;99.90
21047;DHT22;10682;50.874;3.656;2022-08-07T07:16:33;22.80;99.90
21047;DHT22;10682;50.874;3.656;2022-08-07T07:19:29;22.20;99.90
21047;DHT22;10682;50.874;3.656;2022-08-07T07:22:20;21.80;99.90
21047;DHT22;10682;50.874;3.656;2022-08-07T07:25:10;21.90;99.90
21047;DHT22;10682;50.874;3.656;2022-08-07T07:28:02;22.70;99.90
21047;DHT22;10682;50.874;3.656;2022-08-07T07:31:16;23.60;99.90
21047;DHT22;10682;50.874;3.656;2022-08-07T07:33:50;23.10;99.90
21047;DHT22;10682;50.874;3.656;2022-08-07T07:36:26;22.30;99.90
21047;DHT22;10682;50.874;3.656;2022-08-07T07:38:59;21.80;99.90
21047;DHT22;10682;50.874;3.656;2022-08-07T07:41:29;21.30;99.90
21047;DHT22;10682;50.874;3.656;2022-08-07T07:44:19;21.30;99.90
21047;DHT22;10682;50.874;3.656;2022-08-07T07:46:52;21.30;99.90
21047;DHT22;10682;50.874;3.656;2022-08-07T07:49:40;21.20;99.90
21047;DHT22;10682;50.874;3.656;2022-08-07T07:52:29;21.00;99.90
21047;DHT22;10682;50.874;3.656;2022-08-07T07:55:04;20.80;99.90
21047;DHT22;10682;50.874;3.656;2022-08-07T07:57:33;20.50;99.90
21047;DHT22;10682;50.874;3.656;2022-08-07T08:00:19;20.40;99.90
21047;DHT22;10682;50.874;3.656;2022-08-07T08:03:10;20.50;99.90
21047;DHT22;10682;50.874;3.656;2022-08-07T08:05:42;20.90;99.90
21047;DHT22;10682;50.874;3.656;2022-08-07T08:08:24;21.80;99.90
21047;DHT22;10682;50.874;3.656;2022-08-07T08:11:06;23.10;99.90
21047;DHT22;10682;50.874;3.656;2022-08-07T08:13:45;24.20;99.90
21047;DHT22;10682;50.874;3.656;2022-08-07T08:16:26;25.20;99.90
21047;DHT22;10682;50.874;3.656;2022-08-07T08:18:58;25.70;99.90
21047;DHT22;10682;50.874;3.656;2022-08-07T08:21:47;26.30;99.90
21047;DHT22;10682;50.874;3.656;2022-08-07T08:24:38;26.20;99.90
21047;DHT22;10682;50.874;3.656;2022-08-07T08:27:51;26.10;99.90
21047;DHT22;10682;50.874;3.656;2022-08-07T08:30:28;26.00;99.90
21047;DHT22;10682;50.874;3.656;2022-08-07T08:32:59;26.20;99.90
21047;DHT22;10682;50.874;3.656;2022-08-07T08:35:30;26.10;99.90
21047;DHT22;10682;50.874;3.656;2022-08-07T08:38:12;26.00;99.90
21047;DHT22;10682;50.874;3.656;2022-08-07T08:40:47;26.00;99.90
21047;DHT22;10682;50.874;3.656;2022-08-07T08:47:16;25.50;99.90
21047;DHT22;10682;50.874;3.656;2022-08-07T08:52:32;25.30;99.90
21047;DHT22;10682;50.874;3.656;2022-08-07T08:58:51;24.60;99.90
21047;DHT22;10682;50.874;3.656;2022-08-07T09:04:42;24.10;99.90
21047;DHT22;10682;50.874;3.656;2022-08-07T09:07:37;24.10;99.90
21047;DHT22;10682;50.874;3.656;2022-08-07T09:16:10;24.50;99.90
21047;DHT22;10682;50.874;3.656;2022-08-07T09:19:00;24.60;99.90
21047;DHT22;10682;50.874;3.656;2022-08-07T09:25:24;24.50;99.90
21047;DHT22;10682;50.874;3.656;2022-08-07T09:28:03;24.70;99.90
21047;DHT22;10682;50.874;3.656;2022-08-07T09:36:40;24.80;99.90
21047;DHT22;10682;50.874;3.656;2022-08-07T09:50:51;25.40;99.90
21047;DHT22;10682;50.874;3.656;2022-08-07T09:53:26;25.60;99.90
21047;DHT22;10682;50.874;3.656;2022-08-07T09:57:17;25.70;99.90
21047;DHT22;10682;50.874;3.656;2022-08-07T10:02:31;26.00;99.90
21047;DHT22;10682;50.874;3.656;2022-08-07T10:08:30;26.40;99.90
21047;DHT22;10682;50.874;3.656;2022-08-07T10:30:16;26.80;99.90
21047;DHT22;10682;50.874;3.656;2022-08-07T10:36:14;26.30;99.90
21047;DHT22;10682;50.874;3.656;2022-08-07T10:45:26;26.90;99.90
21047;DHT22;10682;50.874;3.656;2022-08-07T10:51:21;27.70;99.90
21047;DHT22;10682;50.874;3.656;2022-08-07T10:54:25;28.00;99.90
21047;DHT22;10682;50.874;3.656;2022-08-07T10:57:14;28.00;99.90
21047;DHT22;10682;50.874;3.656;2022-08-07T11:00:11;27.80;99.90
21047;DHT22;10682;50.874;3.656;2022-08-07T11:03:06;28.00;99.90
21047;DHT22;10682;50.874;3.656;2022-08-07T11:05:54;27.70;99.90
21047;DHT22;10682;50.874;3.656;2022-08-07T11:08:50;27.70;99.90
21047;DHT22;10682;50.874;3.656;2022-08-07T11:11:34;27.70;99.90
21047;DHT22;10682;50.874;3.656;2022-08-07T11:14:21;27.90;99.90
21047;DHT22;10682;50.874;3.656;2022-08-07T11:17:20;28.20;99.90
21047;DHT22;10682;50.874;3.656;2022-08-07T11:20:44;28.40;99.90
21047;DHT22;10682;50.874;3.656;2022-08-07T11:26:30;28.90;99.90
21047;DHT22;10682;50.874;3.656;2022-08-07T11:29:12;28.80;99.90
21047;DHT22;10682;50.874;3.656;2022-08-07T11:32:07;28.80;99.90
21047;DHT22;10682;50.874;3.656;2022-08-07T11:34:48;28.60;99.90
21047;DHT22;10682;50.874;3.656;2022-08-07T11:40:57;28.90;99.90
21047;DHT22;10682;50.874;3.656;2022-08-07T11:43:32;29.20;99.90
21047;DHT22;10682;50.874;3.656;2022-08-07T11:53:09;29.50;99.90
21047;DHT22;10682;50.874;3.656;2022-08-07T11:55:54;29.50;99.90
21047;DHT22;10682;50.874;3.656;2022-08-07T11:59:31;29.50;99.90
21047;DHT22;10682;50.874;3.656;2022-08-07T12:03:10;28.90;99.90
21047;DHT22;10682;50.874;3.656;2022-08-07T12:09:34;28.60;99.90
21047;DHT22;10682;50.874;3.656;2022-08-07T12:12:11;28.60;99.90
21047;DHT22;10682;50.874;3.656;2022-08-07T12:14:57;28.80;99.90
21047;DHT22;10682;50.874;3.656;2022-08-07T12:17:36;29.10;99.90
21047;DHT22;10682;50.874;3.656;2022-08-07T12:20:47;29.20;99.90
21047;DHT22;10682;50.874;3.656;2022-08-07T12:23:26;29.50;99.90
21047;DHT22;10682;50.874;3.656;2022-08-07T12:26:49;29.70;99.90
21047;DHT22;10682;50.874;3.656;2022-08-07T12:29:50;29.50;99.90
21047;DHT22;10682;50.874;3.656;2022-08-07T12:32:28;29.50;99.90
21047;DHT22;10682;50.874;3.656;2022-08-07T12:35:02;29.70;99.90
21047;DHT22;10682;50.874;3.656;2022-08-07T12:37:34;29.80;99.90
21047;DHT22;10682;50.874;3.656;2022-08-07T12:40:24;30.00;99.90
21047;DHT22;10682;50.874;3.656;2022-08-07T12:43:19;29.60;99.90
21047;DHT22;10682;50.874;3.656;2022-08-07T12:46:39;29.60;99.90
21047;DHT22;10682;50.874;3.656;2022-08-07T12:49:46;29.80;99.90
21047;DHT22;10682;50.874;3.656;2022-08-07T12:52:35;29.70;99.90
21047;DHT22;10682;50.874;3.656;2022-08-07T12:55:26;29.80;99.90
21047;DHT22;10682;50.874;3.656;2022-08-07T12:58:18;29.70;99.90
21047;DHT22;10682;50.874;3.656;2022-08-07T13:07:48;29.20;99.90
21047;DHT22;10682;50.874;3.656;2022-08-07T13:11:04;29.90;99.90
21047;DHT22;10682;50.874;3.656;2022-08-07T13:16:34;30.10;99.90
21047;DHT22;10682;50.874;3.656;2022-08-07T13:22:13;30.10;99.90
21047;DHT22;10682;50.874;3.656;2022-08-07T13:25:00;30.00;99.90
21047;DHT22;10682;50.874;3.656;2022-08-07T13:27:42;30.10;99.90
21047;DHT22;10682;50.874;3.656;2022-08-07T13:30:34;30.00;99.90
21047;DHT22;10682;50.874;3.656;2022-08-07T13:33:28;30.00;99.90
21047;DHT22;10682;50.874;3.656;2022-08-07T13:36:27;30.20;99.90
21047;DHT22;10682;50.874;3.656;2022-08-07T13:39:14;30.30;99.90
21047;DHT22;10682;50.874;3.656;2022-08-07T13:42:05;30.40;99.90
21047;DHT22;10682;50.874;3.656;2022-08-07T13:44:37;30.20;99.90
21047;DHT22;10682;50.874;3.656;2022-08-07T13:47:08;30.20;99.90
21047;DHT22;10682;50.874;3.656;2022-08-07T13:49:51;30.00;99.90
21047;DHT22;10682;50.874;3.656;2022-08-07T13:52:42;30.20;99.90
21047;DHT22;10682;50.874;3.656;2022-08-07T13:55:14;30.00;99.90
21047;DHT22;10682;50.874;3.656;2022-08-07T13:58:02;29.90;99.90
21047;DHT22;10682;50.874;3.656;2022-08-07T14:01:00;29.90;99.90
21047;DHT22;10682;50.874;3.656;2022-08-07T14:03:36;30.20;99.90
21047;DHT22;10682;50.874;3.656;2022-08-07T14:06:36;30.40;99.90
21047;DHT22;10682;50.874;3.656;2022-08-07T14:09:06;30.40;99.90
21047;DHT22;10682;50.874;3.656;2022-08-07T14:11:45;30.30;99.90
21047;DHT22;10682;50.874;3.656;2022-08-07T14:14:38;30.10;99.90
21047;DHT22;10682;50.874;3.656;2022-08-07T14:17:10;29.90;99.90
21047;DHT22;10682;50.874;3.656;2022-08-07T14:20:04;29.90;99.90
21047;DHT22;10682;50.874;3.656;2022-08-07T14:26:19;29.60;99.90
21047;DHT22;10682;50.874;3.656;2022-08-07T14:28:59;29.20;99.90
21047;DHT22;10682;50.874;3.656;2022-08-07T14:31:50;29.30;99.90
21047;DHT22;10682;50.874;3.656;2022-08-07T14:34:27;29.20;99.90
21047;DHT22;10682;50.874;3.656;2022-08-07T14:37:02;29.00;99.90
21047;DHT22;10682;50.874;3.656;2022-08-07T14:39:44;29.10;99.90
21047;DHT22;10682;50.874;3.656;2022-08-07T14:42:33;28.90;99.90
21047;DHT22;10682;50.874;3.656;2022-08-07T14:45:25;28.70;99.90
21047;DHT22;10682;50.874;3.656;2022-08-07T14:48:19;28.50;99.90
21047;DHT22;10682;50.874;3.656;2022-08-07T14:51:16;28.30;99.90
21047;DHT22;10682;50.874;3.656;2022-08-07T14:53:46;27.90;99.90
21047;DHT22;10682;50.874;3.656;2022-08-07T14:56:39;27.80;99.90
21047;DHT22;10682;50.874;3.656;2022-08-07T14:59:11;27.80;99.90
21047;DHT22;10682;50.874;3.656;2022-08-07T15:02:11;27.60;99.90
21047;DHT22;10682;50.874;3.656;2022-08-07T15:05:00;27.40;99.90
21047;DHT22;10682;50.874;3.656;2022-08-07T15:07:47;27.10;99.90
21047;DHT22;10682;50.874;3.656;2022-08-07T15:10:22;26.80;99.90
21047;DHT22;10682;50.874;3.656;2022-08-07T15:13:05;26.50;99.90
21047;DHT22;10682;50.874;3.656;2022-08-07T15:16:04;26.50;99.90
21047;DHT22;10682;50.874;3.656;2022-08-07T15:18:54;26.40;99.90
21047;DHT22;10682;50.874;3.656;2022-08-07T15:21:32;26.60;99.90
21047;DHT22;10682;50.874;3.656;2022-08-07T15:24:24;26.40;99.90
21047;DHT22;10682;50.874;3.656;2022-08-07T15:27:21;26.20;99.90
21047;DHT22;10682;50.874;3.656;2022-08-07T15:29:53;26.30;99.90
21047;DHT22;10682;50.874;3.656;2022-08-07T15:32:44;26.10;99.90
21047;DHT22;10682;50.874;3.656;2022-08-07T15:35:31;26.10;99.90
21047;DHT22;10682;50.874;3.656;2022-08-07T15:38:24;26.00;99.90
21047;DHT22;10682;50.874;3.656;2022-08-07T15:41:05;26.00;99.90
21047;DHT22;10682;50.874;3.656;2022-08-07T15:44:04;26.00;99.90
21047;DHT22;10682;50.874;3.656;2022-08-07T15:46:36;26.10;99.90
21047;DHT22;10682;50.874;3.656;2022-08-07T15:49:28;26.10;99.90
21047;DHT22;10682;50.874;3.656;2022-08-07T15:52:22;26.00;99.90
21047;DHT22;10682;50.874;3.656;2022-08-07T15:55:01;25.90;99.90
21047;DHT22;10682;50.874;3.656;2022-08-07T15:57:34;25.80;99.90
21047;DHT22;10682;50.874;3.656;2022-08-07T16:00:15;25.70;99.90
21047;DHT22;10682;50.874;3.656;2022-08-07T16:03:05;25.80;99.90
21047;DHT22;10682;50.874;3.656;2022-08-07T16:05:50;26.00;99.90
21047;DHT22;10682;50.874;3.656;2022-08-07T16:08:22;26.00;99.90
21047;DHT22;10682;50.874;3.656;2022-08-07T16:27:27;25.40;99.90
21047;DHT22;10682;50.874;3.656;2022-08-07T16:30:13;25.30;99.90
21047;DHT22;10682;50.874;3.656;2022-08-07T16:33:11;25.30;99.90
21047;DHT22;10682;50.874;3.656;2022-08-07T16:52:08;25.00;99.90
21047;DHT22;10682;50.874;3.656;2022-08-07T16:55:29;25.00;99.90
21047;DHT22;10682;50.874;3.656;2022-08-07T16:59:00;24.80;99.90
21047;DHT22;10682;50.874;3.656;2022-08-07T17:01:47;24.80;99.90
21047;DHT22;10682;50.874;3.656;2022-08-07T17:07:27;24.60;99.90
21047;DHT22;10682;50.874;3.656;2022-08-07T17:16:25;24.40;99.90
21047;DHT22;10682;50.874;3.656;2022-08-07T17:21:46;24.10;99.90
21047;DHT22;10682;50.874;3.656;2022-08-07T17:27:12;24.00;99.90
21047;DHT22;10682;50.874;3.656;2022-08-07T17:30:02;24.00;99.90
21047;DHT22;10682;50.874;3.656;2022-08-07T17:33:44;23.90;99.90
21047;DHT22;10682;50.874;3.656;2022-08-07T17:36:11;23.80;99.90
21047;DHT22;10682;50.874;3.656;2022-08-07T17:38:59;23.60;99.90
21047;DHT22;10682;50.874;3.656;2022-08-07T17:42:11;23.50;99.90
21047;DHT22;10682;50.874;3.656;2022-08-07T17:44:50;23.50;99.90
21047;DHT22;10682;50.874;3.656;2022-08-07T17:56:22;23.20;99.90
21047;DHT22;10682;50.874;3.656;2022-08-07T17:59:00;23.10;99.90
21047;DHT22;10682;50.874;3.656;2022-08-07T18:05:01;22.90;99.90
21047;DHT22;10682;50.874;3.656;2022-08-07T18:10:53;22.90;99.90
21047;DHT22;10682;50.874;3.656;2022-08-07T18:16:41;22.70;99.90
21047;DHT22;10682;50.874;3.656;2022-08-07T18:19:46;22.60;99.90
21047;DHT22;10682;50.874;3.656;2022-08-07T18:25:32;22.40;99.90
21047;DHT22;10682;50.874;3.656;2022-08-07T18:28:20;22.20;99.90
21047;DHT22;10682;50.874;3.656;2022-08-07T18:31:17;22.10;99.90
21047;DHT22;10682;50.874;3.656;2022-08-07T18:37:23;21.90;99.90
21047;DHT22;10682;50.874;3.656;2022-08-07T18:43:50;21.80;99.90
21047;DHT22;10682;50.874;3.656;2022-08-07T18:46:55;21.80;99.90
21047;DHT22;10682;50.874;3.656;2022-08-07T18:52:38;21.60;99.90
21047;DHT22;10682;50.874;3.656;2022-08-07T19:01:29;21.40;99.90
21047;DHT22;10682;50.874;3.656;2022-08-07T19:10:40;21.00;99.90
21047;DHT22;10682;50.874;3.656;2022-08-07T19:13:34;20.90;99.90
21047;DHT22;10682;50.874;3.656;2022-08-07T19:16:21;20.80;99.90
21047;DHT22;10682;50.874;3.656;2022-08-07T19:22:52;20.60;99.90
21047;DHT22;10682;50.874;3.656;2022-08-07T19:25:46;20.40;99.90
21047;DHT22;10682;50.874;3.656;2022-08-07T19:28:59;20.30;99.90
21047;DHT22;10682;50.874;3.656;2022-08-07T19:31:52;20.20;99.90
21047;DHT22;10682;50.874;3.656;2022-08-07T19:34:41;20.10;99.90
21047;DHT22;10682;50.874;3.656;2022-08-07T19:37:18;20.00;99.90
21047;DHT22;10682;50.874;3.656;2022-08-07T19:39:54;19.90;99.90
21047;DHT22;10682;50.874;3.656;2022-08-07T19:42:31;19.80;99.90
21047;DHT22;10682;50.874;3.656;2022-08-07T19:45:16;19.80;99.90
21047;DHT22;10682;50.874;3.656;2022-08-07T19:48:07;19.70;99.90
21047;DHT22;10682;50.874;3.656;2022-08-07T19:50:50;19.50;99.90
21047;DHT22;10682;50.874;3.656;2022-08-07T19:53:19;19.50;99.90
21047;DHT22;10682;50.874;3.656;2022-08-07T19:56:09;19.40;99.90
21047;DHT22;10682;50.874;3.656;2022-08-07T19:58:57;19.30;99.90
21047;DHT22;10682;50.874;3.656;2022-08-07T20:01:28;19.30;99.90
21047;DHT22;10682;50.874;3.656;2022-08-07T20:04:17;19.10;99.90
21047;DHT22;10682;50.874;3.656;2022-08-07T20:06:58;19.00;99.90
21047;DHT22;10682;50.874;3.656;2022-08-07T20:09:27;18.90;99.90
21047;DHT22;10682;50.874;3.656;2022-08-07T20:12:18;18.80;99.90
21047;DHT22;10682;50.874;3.656;2022-08-07T20:15:02;18.60;99.90
21047;DHT22;10682;50.874;3.656;2022-08-07T20:17:42;18.50;99.90
21047;DHT22;10682;50.874;3.656;2022-08-07T20:20:28;18.30;99.90
21047;DHT22;10682;50.874;3.656;2022-08-07T20:23:00;18.20;99.90
21047;DHT22;10682;50.874;3.656;2022-08-07T20:25:49;18.10;99.90
21047;DHT22;10682;50.874;3.656;2022-08-07T20:28:19;17.90;99.90
21047;DHT22;10682;50.874;3.656;2022-08-07T20:30:55;17.90;99.90
21047;DHT22;10682;50.874;3.656;2022-08-07T20:33:26;17.80;99.90
21047;DHT22;10682;50.874;3.656;2022-08-07T20:36:05;17.70;99.90
21047;DHT22;10682;50.874;3.656;2022-08-07T20:38:36;17.60;99.90
21047;DHT22;10682;50.874;3.656;2022-08-07T20:41:30;17.50;99.90